APL Illinois — 9HA2040 — position and weather

sailwx.info

Track history (hours):
 
Tides and Currents Weather Stations Pressure Air Temp Water Temp Dewpoint Dewpoint Depression Visibility Wind Speed Wind Dir Waves Ship Positions

APL Illinois

Last reported at 2017-Nov-18 03:24 UTC. Time now 2017-Nov-19 10:22 UTC.
Position N 37°57' W 000°11'.

Length 304 m; draft 11.6 m.

Type: Ship (hazmat cat C). MMSI: 249851000.

Date/timePositionNaut miles runAvg speedWind from/ knotsBaromVisibWave heightAir tempDewpointWater temp
2017-Nov-18 03:24N 37°57' W 000°11'1218.2
2017-Nov-18 02:43N 37°47' W 000°20'418.3
2017-Nov-18 02:30N 37°44' W 000°23'918.1
2017-Nov-18 02:00N 37°36' W 000°29'917.6
2017-Nov-18 01:30N 37°30' W 000°37'917.9
2017-Nov-18 01:00N 37°24' W 000°45'917.8
2017-Nov-18 00:29N 37°17' W 000°53'917.8
2017-Nov-18 00:00N 37°11' W 001°00'21217.2
2017-Nov-17 11:40N 36°02' W 005°11'318.8
2017-Nov-17 11:30N 36°02' W 005°15'814.8
2017-Nov-17 10:57N 36°06' W 005°24'3 5.8
2017-Nov-17 10:22N 36°08' W 005°26'0 0.3
2017-Nov-17 09:49N 36°08' W 005°26'0 0.0
2017-Nov-17 09:25N 36°08' W 005°26'0 0.0
2017-Nov-17 08:37N 36°08' W 005°26'0 0.0
2017-Nov-17 08:25N 36°08' W 005°26'0 0.0
2017-Nov-17 07:58N 36°08' W 005°26'0 0.0
2017-Nov-17 07:25N 36°08' W 005°26'0 0.0
2017-Nov-17 06:55N 36°08' W 005°26'0 0.0
2017-Nov-17 06:25N 36°08' W 005°26'0 0.0
2017-Nov-17 05:58N 36°08' W 005°26'0 0.0
2017-Nov-17 05:28N 36°08' W 005°26'0 0.0
2017-Nov-17 04:58N 36°08' W 005°26'0 0.0
2017-Nov-17 04:28N 36°08' W 005°26'0 0.0
2017-Nov-17 03:58N 36°08' W 005°26'0 0.0
2017-Nov-17 03:28N 36°08' W 005°26'0 0.0
2017-Nov-17 02:58N 36°08' W 005°26'0 0.0
2017-Nov-17 02:28N 36°08' W 005°26'0 0.0
2017-Nov-17 01:58N 36°08' W 005°26'0 0.1
2017-Nov-17 01:28N 36°09' W 005°26'0 0.1
2017-Nov-17 00:58N 36°08' W 005°26'0 0.0
2017-Nov-17 00:25N 36°08' W 005°26'0 0.0
2017-Nov-16 23:58N 36°08' W 005°26'0 0.0
2017-Nov-16 23:25N 36°08' W 005°26'0 0.0
2017-Nov-16 22:58N 36°08' W 005°26'0 0.0
2017-Nov-16 22:28N 36°08' W 005°26'0 0.0
2017-Nov-16 21:58N 36°08' W 005°26'0 0.0
2017-Nov-16 21:25N 36°08' W 005°26'0 0.0
2017-Nov-16 20:31N 36°08' W 005°26'0 0.0
2017-Nov-16 14:37N 36°08' W 005°26'0 0.0
2017-Nov-16 14:10N 36°08' W 005°26'0 0.0
2017-Nov-16 13:55N 36°08' W 005°26'0 0.0
2017-Nov-16 13:25N 36°08' W 005°26'0 0.0
2017-Nov-16 12:55N 36°08' W 005°26'0 0.1
2017-Nov-16 12:30N 36°08' W 005°26'6 5.5
2017-Nov-16 11:26N 36°04' W 005°21'3 6.9
2017-Nov-16 10:59N 36°03' W 005°18'3 5.7
2017-Nov-16 10:30N 36°00' W 005°20'612.9
2017-Nov-16 10:00N 35°58' W 005°27'  
2017-Nov-13 02:00N 39°46' W 028°55'815.2
2017-Nov-13 01:30N 39°47' W 029°05'815.1
2017-Nov-13 01:00N 39°48' W 029°15'715.0
2017-Nov-13 00:30N 39°49' W 029°24'715.0
2017-Nov-13 00:00N 39°50' W 029°34'815.2
2017-Nov-12 23:30N 39°52' W 029°44'815.1
2017-Nov-12 23:00N 39°53' W 029°53'815.0
2017-Nov-12 22:30N 39°53' W 030°03'715.0
2017-Nov-12 22:00N 39°54' W 030°13'1915.2
2017-Nov-12 20:47N 39°57' W 030°37'415.0
2017-Nov-12 20:30N 39°57' W 030°42'815.1
2017-Nov-12 20:00N 39°58' W 030°52'715.2
2017-Nov-12 19:30N 39°59' W 031°02'815.2
2017-Nov-12 19:00N 40°00' W 031°12'715.0
2017-Nov-12 18:30N 40°01' W 031°21'814.9
2017-Nov-12 18:00N 40°01' W 031°31'714.9
2017-Nov-12 17:30N 40°01' W 031°41'714.8
2017-Nov-12 17:00N 40°01' W 031°51'714.9
2017-Nov-12 16:30N 40°02' W 032°00'815.0
2017-Nov-12 16:00N 40°02' W 032°10'  
Track history (hours):
 
Tides and Currents Weather Stations Pressure Air Temp Water Temp Dewpoint Dewpoint Depression Visibility Wind Speed Wind Dir Waves Ship Positions

APL Illinois

Last reported at 2017-Nov-18 03:24 UTC. Time now 2017-Nov-19 10:22 UTC.
Position N 37°57' W 000°11'.

Length 304 m; draft 11.6 m.

Type: Ship (hazmat cat C). MMSI: 249851000.

Date/timePositionNaut miles runAvg speedWind from/ knotsBaromVisibWave heightAir tempDewpointWater temp
2017-Nov-18 03:24N 37°57' W 000°11'1218.2
2017-Nov-18 02:43N 37°47' W 000°20'418.3
2017-Nov-18 02:30N 37°44' W 000°23'918.1
2017-Nov-18 02:00N 37°36' W 000°29'917.6
2017-Nov-18 01:30N 37°30' W 000°37'917.9
2017-Nov-18 01:00N 37°24' W 000°45'917.8
2017-Nov-18 00:29N 37°17' W 000°53'917.8
2017-Nov-18 00:00N 37°11' W 001°00'21217.2
2017-Nov-17 11:40N 36°02' W 005°11'318.8
2017-Nov-17 11:30N 36°02' W 005°15'814.8
2017-Nov-17 10:57N 36°06' W 005°24'3 5.8
2017-Nov-17 10:22N 36°08' W 005°26'0 0.3
2017-Nov-17 09:49N 36°08' W 005°26'0 0.0
2017-Nov-17 09:25N 36°08' W 005°26'0 0.0
2017-Nov-17 08:37N 36°08' W 005°26'0 0.0
2017-Nov-17 08:25N 36°08' W 005°26'0 0.0
2017-Nov-17 07:58N 36°08' W 005°26'0 0.0
2017-Nov-17 07:25N 36°08' W 005°26'0 0.0
2017-Nov-17 06:55N 36°08' W 005°26'0 0.0
2017-Nov-17 06:25N 36°08' W 005°26'0 0.0
2017-Nov-17 05:58N 36°08' W 005°26'0 0.0
2017-Nov-17 05:28N 36°08' W 005°26'0 0.0
2017-Nov-17 04:58N 36°08' W 005°26'0 0.0
2017-Nov-17 04:28N 36°08' W 005°26'0 0.0
2017-Nov-17 03:58N 36°08' W 005°26'0 0.0
2017-Nov-17 03:28N 36°08' W 005°26'0 0.0
2017-Nov-17 02:58N 36°08' W 005°26'0 0.0
2017-Nov-17 02:28N 36°08' W 005°26'0 0.0
2017-Nov-17 01:58N 36°08' W 005°26'0 0.1
2017-Nov-17 01:28N 36°09' W 005°26'0 0.1
2017-Nov-17 00:58N 36°08' W 005°26'0 0.0
2017-Nov-17 00:25N 36°08' W 005°26'0 0.0
2017-Nov-16 23:58N 36°08' W 005°26'0 0.0
2017-Nov-16 23:25N 36°08' W 005°26'0 0.0
2017-Nov-16 22:58N 36°08' W 005°26'0 0.0
2017-Nov-16 22:28N 36°08' W 005°26'0 0.0
2017-Nov-16 21:58N 36°08' W 005°26'0 0.0
2017-Nov-16 21:25N 36°08' W 005°26'0 0.0
2017-Nov-16 20:31N 36°08' W 005°26'0 0.0
2017-Nov-16 14:37N 36°08' W 005°26'0 0.0
2017-Nov-16 14:10N 36°08' W 005°26'0 0.0
2017-Nov-16 13:55N 36°08' W 005°26'0 0.0
2017-Nov-16 13:25N 36°08' W 005°26'0 0.0
2017-Nov-16 12:55N 36°08' W 005°26'0 0.1
2017-Nov-16 12:30N 36°08' W 005°26'6 5.5
2017-Nov-16 11:26N 36°04' W 005°21'3 6.9
2017-Nov-16 10:59N 36°03' W 005°18'3 5.7
2017-Nov-16 10:30N 36°00' W 005°20'612.9
2017-Nov-16 10:00N 35°58' W 005°27'  
2017-Nov-13 02:00N 39°46' W 028°55'815.2
2017-Nov-13 01:30N 39°47' W 029°05'815.1
2017-Nov-13 01:00N 39°48' W 029°15'715.0
2017-Nov-13 00:30N 39°49' W 029°24'715.0
2017-Nov-13 00:00N 39°50' W 029°34'815.2
2017-Nov-12 23:30N 39°52' W 029°44'815.1
2017-Nov-12 23:00N 39°53' W 029°53'815.0
2017-Nov-12 22:30N 39°53' W 030°03'715.0
2017-Nov-12 22:00N 39°54' W 030°13'1915.2
2017-Nov-12 20:47N 39°57' W 030°37'415.0
2017-Nov-12 20:30N 39°57' W 030°42'815.1
2017-Nov-12 20:00N 39°58' W 030°52'715.2
2017-Nov-12 19:30N 39°59' W 031°02'815.2
2017-Nov-12 19:00N 40°00' W 031°12'715.0
2017-Nov-12 18:30N 40°01' W 031°21'814.9
2017-Nov-12 18:00N 40°01' W 031°31'714.9
2017-Nov-12 17:30N 40°01' W 031°41'714.8
2017-Nov-12 17:00N 40°01' W 031°51'714.9
2017-Nov-12 16:30N 40°02' W 032°00'815.0
2017-Nov-12 16:00N 40°02' W 032°10'  

Dump ship's entire track history